sensor_id;sensor_type;location;lat;lon;timestamp;pressure;altitude;pressure_sealevel;temperature;humidity
59407;BME280;45208;32.616;-115.472;2022-12-07T00:01:03;101393.03;;;36.98;nan
59407;BME280;45208;32.616;-115.472;2022-12-07T00:03:32;101395.50;;;36.11;nan
59407;BME280;45208;32.616;-115.472;2022-12-07T00:06:01;101388.28;;;37.81;nan
59407;BME280;45208;32.616;-115.472;2022-12-07T00:08:27;101392.38;;;38.72;nan
59407;BME280;45208;32.616;-115.472;2022-12-07T00:10:54;101398.28;;;36.99;nan
59407;BME280;45208;32.616;-115.472;2022-12-07T00:13:20;101399.88;;;36.73;nan
59407;BME280;45208;32.616;-115.472;2022-12-07T00:15:48;101398.06;;;38.36;nan
59407;BME280;45208;32.616;-115.472;2022-12-07T00:18:18;101394.88;;;39.48;nan
59407;BME280;45208;32.616;-115.472;2022-12-07T00:20:44;101401.72;;;38.89;nan
59407;BME280;45208;32.616;-115.472;2022-12-07T00:23:14;101407.34;;;38.00;nan
59407;BME280;45208;32.616;-115.472;2022-12-07T00:25:43;101407.88;;;37.95;nan
59407;BME280;45208;32.616;-115.472;2022-12-07T00:28:10;101399.63;;;38.21;nan
59407;BME280;45208;32.616;-115.472;2022-12-07T00:30:37;101407.47;;;38.69;nan
59407;BME280;45208;32.616;-115.472;2022-12-07T00:33:06;101406.41;;;38.27;nan
59407;BME280;45208;32.616;-115.472;2022-12-07T00:35:32;101416.69;;;37.58;nan
59407;BME280;45208;32.616;-115.472;2022-12-07T00:37:59;101424.59;;;37.23;nan
59407;BME280;45208;32.616;-115.472;2022-12-07T00:40:26;101432.31;;;34.77;nan
59407;BME280;45208;32.616;-115.472;2022-12-07T00:42:52;101427.34;;;35.47;nan
59407;BME280;45208;32.616;-115.472;2022-12-07T00:45:19;101431.25;;;35.98;nan
59407;BME280;45208;32.616;-115.472;2022-12-07T00:47:45;101421.91;;;35.63;nan
59407;BME280;45208;32.616;-115.472;2022-12-07T00:50:12;101431.09;;;36.70;nan
59407;BME280;45208;32.616;-115.472;2022-12-07T00:52:38;101430.41;;;38.02;nan
59407;BME280;45208;32.616;-115.472;2022-12-07T00:55:05;101433.31;;;36.85;nan
59407;BME280;45208;32.616;-115.472;2022-12-07T00:57:33;101445.13;;;37.97;nan
59407;BME280;45208;32.616;-115.472;2022-12-07T01:00:01;101444.47;;;38.29;nan
59407;BME280;45208;32.616;-115.472;2022-12-07T01:02:31;101433.03;;;38.33;nan
59407;BME280;45208;32.616;-115.472;2022-12-07T01:04:58;101436.41;;;38.28;nan
59407;BME280;45208;32.616;-115.472;2022-12-07T01:07:24;101447.38;;;38.06;nan
59407;BME280;45208;32.616;-115.472;2022-12-07T01:09:51;101453.13;;;38.02;nan
59407;BME280;45208;32.616;-115.472;2022-12-07T01:12:18;101448.13;;;37.67;nan
59407;BME280;45208;32.616;-115.472;2022-12-07T01:14:46;101452.56;;;37.68;nan
59407;BME280;45208;32.616;-115.472;2022-12-07T01:17:15;101448.03;;;37.74;nan
59407;BME280;45208;32.616;-115.472;2022-12-07T01:19:43;101455.84;;;37.66;nan
59407;BME280;45208;32.616;-115.472;2022-12-07T01:22:12;101456.16;;;37.48;nan
59407;BME280;45208;32.616;-115.472;2022-12-07T01:24:41;101460.88;;;37.35;nan
59407;BME280;45208;32.616;-115.472;2022-12-07T01:27:11;101464.19;;;37.30;nan
59407;BME280;45208;32.616;-115.472;2022-12-07T01:29:39;101458.97;;;37.25;nan
59407;BME280;45208;32.616;-115.472;2022-12-07T01:32:07;101464.19;;;37.30;nan
59407;BME280;45208;32.616;-115.472;2022-12-07T01:34:34;101457.84;;;36.69;nan
59407;BME280;45208;32.616;-115.472;2022-12-07T01:37:02;101458.22;;;36.98;nan
59407;BME280;45208;32.616;-115.472;2022-12-07T01:39:28;101463.56;;;36.92;nan
59407;BME280;45208;32.616;-115.472;2022-12-07T01:41:55;101464.44;;;36.89;nan
59407;BME280;45208;32.616;-115.472;2022-12-07T01:44:28;101466.25;;;37.03;nan
59407;BME280;45208;32.616;-115.472;2022-12-07T01:47:03;101474.41;;;36.97;nan
59407;BME280;45208;32.616;-115.472;2022-12-07T01:49:37;101473.44;;;37.07;nan
59407;BME280;45208;32.616;-115.472;2022-12-07T01:55:03;101483.41;;;37.19;nan
59407;BME280;45208;32.616;-115.472;2022-12-07T01:57:30;101474.47;;;36.94;nan
59407;BME280;45208;32.616;-115.472;2022-12-07T01:59:57;101475.41;;;36.87;nan
59407;BME280;45208;32.616;-115.472;2022-12-07T02:02:41;101477.50;;;36.83;nan
59407;BME280;45208;32.616;-115.472;2022-12-07T02:05:09;101486.84;;;36.76;nan
59407;BME280;45208;32.616;-115.472;2022-12-07T02:07:37;101486.72;;;36.56;nan
59407;BME280;45208;32.616;-115.472;2022-12-07T02:10:17;101487.47;;;36.60;nan
59407;BME280;45208;32.616;-115.472;2022-12-07T02:12:44;101489.06;;;36.65;nan
59407;BME280;45208;32.616;-115.472;2022-12-07T02:15:14;101497.44;;;36.72;nan
59407;BME280;45208;32.616;-115.472;2022-12-07T02:17:44;101488.00;;;36.52;nan
59407;BME280;45208;32.616;-115.472;2022-12-07T02:32:44;101511.94;;;36.13;nan
59407;BME280;45208;32.616;-115.472;2022-12-07T02:38:03;101516.66;;;35.86;nan
59407;BME280;45208;32.616;-115.472;2022-12-07T02:40:41;101509.72;;;35.90;nan
59407;BME280;45208;32.616;-115.472;2022-12-07T02:43:16;101520.94;;;36.01;nan
59407;BME280;45208;32.616;-115.472;2022-12-07T02:45:45;101516.94;;;35.98;nan
59407;BME280;45208;32.616;-115.472;2022-12-07T02:48:13;101520.91;;;36.05;nan
59407;BME280;45208;32.616;-115.472;2022-12-07T02:50:45;101516.28;;;35.80;nan
59407;BME280;45208;32.616;-115.472;2022-12-07T02:55:56;101518.22;;;35.94;nan
59407;BME280;45208;32.616;-115.472;2022-12-07T02:58:30;101523.06;;;35.90;nan
59407;BME280;45208;32.616;-115.472;2022-12-07T03:01:04;101524.78;;;35.84;nan
59407;BME280;45208;32.616;-115.472;2022-12-07T03:03:35;101532.09;;;35.78;nan
59407;BME280;45208;32.616;-115.472;2022-12-07T03:08:43;101519.25;;;35.66;nan
59407;BME280;45208;32.616;-115.472;2022-12-07T03:11:14;101531.75;;;35.68;nan
59407;BME280;45208;32.616;-115.472;2022-12-07T03:13:47;101532.22;;;35.63;nan
59407;BME280;45208;32.616;-115.472;2022-12-07T03:16:18;101534.66;;;35.61;nan
59407;BME280;45208;32.616;-115.472;2022-12-07T03:18:57;101533.53;;;35.48;nan
59407;BME280;45208;32.616;-115.472;2022-12-07T03:21:27;101533.63;;;35.41;nan
59407;BME280;45208;32.616;-115.472;2022-12-07T03:23:56;101548.06;;;35.50;nan
59407;BME280;45208;32.616;-115.472;2022-12-07T03:26:24;101538.47;;;35.37;nan
59407;BME280;45208;32.616;-115.472;2022-12-07T03:28:54;101538.41;;;35.48;nan
59407;BME280;45208;32.616;-115.472;2022-12-07T03:31:40;101553.00;;;35.42;nan
59407;BME280;45208;32.616;-115.472;2022-12-07T03:37:12;101543.31;;;35.33;nan
59407;BME280;45208;32.616;-115.472;2022-12-07T03:39:52;101555.63;;;35.08;nan
59407;BME280;45208;32.616;-115.472;2022-12-07T03:42:20;101550.72;;;35.20;nan
59407;BME280;45208;32.616;-115.472;2022-12-07T03:44:46;101558.69;;;35.32;nan
59407;BME280;45208;32.616;-115.472;2022-12-07T03:49:53;101560.38;;;35.22;nan
59407;BME280;45208;32.616;-115.472;2022-12-07T03:52:32;101564.41;;;35.25;nan
59407;BME280;45208;32.616;-115.472;2022-12-07T03:57:43;101571.78;;;35.01;nan
59407;BME280;45208;32.616;-115.472;2022-12-07T04:00:11;101577.06;;;35.02;nan
59407;BME280;45208;32.616;-115.472;2022-12-07T04:02:38;101585.34;;;34.25;nan
59407;BME280;45208;32.616;-115.472;2022-12-07T04:05:05;101576.84;;;34.54;nan
59407;BME280;45208;32.616;-115.472;2022-12-07T04:07:32;101571.91;;;34.76;nan
59407;BME280;45208;32.616;-115.472;2022-12-07T04:09:58;101575.88;;;34.93;nan
59407;BME280;45208;32.616;-115.472;2022-12-07T04:12:24;101584.94;;;34.27;nan
59407;BME280;45208;32.616;-115.472;2022-12-07T04:14:50;101583.00;;;33.85;nan
59407;BME280;45208;32.616;-115.472;2022-12-07T04:17:18;101593.03;;;33.68;nan
59407;BME280;45208;32.616;-115.472;2022-12-07T04:19:44;101587.06;;;32.58;nan
59407;BME280;45208;32.616;-115.472;2022-12-07T04:22:11;101600.69;;;33.71;nan
59407;BME280;45208;32.616;-115.472;2022-12-07T04:24:37;101586.56;;;34.49;nan
59407;BME280;45208;32.616;-115.472;2022-12-07T04:27:04;101584.88;;;34.59;nan
59407;BME280;45208;32.616;-115.472;2022-12-07T04:29:31;101585.66;;;34.63;nan
59407;BME280;45208;32.616;-115.472;2022-12-07T04:31:57;101585.72;;;34.45;nan
59407;BME280;45208;32.616;-115.472;2022-12-07T04:34:23;101583.34;;;34.47;nan
59407;BME280;45208;32.616;-115.472;2022-12-07T04:36:50;101584.16;;;34.37;nan
59407;BME280;45208;32.616;-115.472;2022-12-07T04:39:20;101586.97;;;34.48;nan
59407;BME280;45208;32.616;-115.472;2022-12-07T04:41:46;101590.19;;;34.32;nan
59407;BME280;45208;32.616;-115.472;2022-12-07T04:44:13;101592.19;;;34.28;nan
59407;BME280;45208;32.616;-115.472;2022-12-07T04:46:40;101591.03;;;34.36;nan
59407;BME280;45208;32.616;-115.472;2022-12-07T04:49:07;101595.47;;;33.59;nan
59407;BME280;45208;32.616;-115.472;2022-12-07T04:51:33;101599.91;;;33.63;nan
59407;BME280;45208;32.616;-115.472;2022-12-07T04:54:00;101605.75;;;32.94;nan
59407;BME280;45208;32.616;-115.472;2022-12-07T04:56:26;101607.06;;;33.25;nan
59407;BME280;45208;32.616;-115.472;2022-12-07T04:58:53;101604.31;;;33.68;nan
59407;BME280;45208;32.616;-115.472;2022-12-07T05:01:19;101608.75;;;33.51;nan
59407;BME280;45208;32.616;-115.472;2022-12-07T05:03:46;101619.44;;;32.92;nan
59407;BME280;45208;32.616;-115.472;2022-12-07T05:06:13;101605.19;;;32.64;nan
59407;BME280;45208;32.616;-115.472;2022-12-07T05:08:40;101610.78;;;33.76;nan
59407;BME280;45208;32.616;-115.472;2022-12-07T05:11:07;101624.44;;;34.56;nan
59407;BME280;45208;32.616;-115.472;2022-12-07T05:13:34;101613.88;;;34.74;nan
59407;BME280;45208;32.616;-115.472;2022-12-07T05:16:00;101617.41;;;34.99;nan
59407;BME280;45208;32.616;-115.472;2022-12-07T05:18:27;101616.69;;;34.88;nan
59407;BME280;45208;32.616;-115.472;2022-12-07T05:20:53;101619.09;;;34.79;nan
59407;BME280;45208;32.616;-115.472;2022-12-07T05:23:19;101615.59;;;34.25;nan
59407;BME280;45208;32.616;-115.472;2022-12-07T05:25:46;101626.84;;;34.57;nan
59407;BME280;45208;32.616;-115.472;2022-12-07T05:28:12;101618.81;;;34.27;nan
59407;BME280;45208;32.616;-115.472;2022-12-07T05:30:39;101621.28;;;33.97;nan
59407;BME280;45208;32.616;-115.472;2022-12-07T05:33:05;101626.09;;;33.89;nan
59407;BME280;45208;32.616;-115.472;2022-12-07T05:35:31;101631.75;;;34.03;nan
59407;BME280;45208;32.616;-115.472;2022-12-07T05:37:58;101628.50;;;33.80;nan
59407;BME280;45208;32.616;-115.472;2022-12-07T05:40:25;101634.53;;;33.71;nan
59407;BME280;45208;32.616;-115.472;2022-12-07T05:42:54;101643.03;;;33.96;nan
59407;BME280;45208;32.616;-115.472;2022-12-07T05:45:20;101637.78;;;34.19;nan
59407;BME280;45208;32.616;-115.472;2022-12-07T05:47:46;101641.41;;;34.34;nan
59407;BME280;45208;32.616;-115.472;2022-12-07T05:50:12;101645.03;;;34.38;nan
59407;BME280;45208;32.616;-115.472;2022-12-07T05:52:39;101640.59;;;34.48;nan
59407;BME280;45208;32.616;-115.472;2022-12-07T05:55:06;101643.38;;;34.59;nan
59407;BME280;45208;32.616;-115.472;2022-12-07T05:57:32;101644.59;;;34.54;nan
59407;BME280;45208;32.616;-115.472;2022-12-07T05:59:59;101654.25;;;34.64;nan
59407;BME280;45208;32.616;-115.472;2022-12-07T06:02:25;101646.25;;;34.48;nan
59407;BME280;45208;32.616;-115.472;2022-12-07T06:04:51;101659.09;;;34.60;nan
59407;BME280;45208;32.616;-115.472;2022-12-07T06:07:18;101651.06;;;34.51;nan
59407;BME280;45208;32.616;-115.472;2022-12-07T06:09:47;101659.13;;;34.56;nan
59407;BME280;45208;32.616;-115.472;2022-12-07T06:12:14;101659.94;;;34.53;nan
59407;BME280;45208;32.616;-115.472;2022-12-07T06:14:59;101666.34;;;33.72;nan
59407;BME280;45208;32.616;-115.472;2022-12-07T06:17:25;101657.53;;;34.09;nan
59407;BME280;45208;32.616;-115.472;2022-12-07T06:19:51;101663.19;;;34.16;nan
59407;BME280;45208;32.616;-115.472;2022-12-07T06:22:18;101662.78;;;34.14;nan
59407;BME280;45208;32.616;-115.472;2022-12-07T06:24:44;101661.13;;;33.70;nan
59407;BME280;45208;32.616;-115.472;2022-12-07T06:27:11;101660.72;;;33.68;nan
59407;BME280;45208;32.616;-115.472;2022-12-07T06:29:37;101659.50;;;33.69;nan
59407;BME280;45208;32.616;-115.472;2022-12-07T06:32:03;101660.69;;;33.54;nan
59407;BME280;45208;32.616;-115.472;2022-12-07T06:34:30;101663.16;;;33.84;nan
59407;BME280;45208;32.616;-115.472;2022-12-07T06:36:57;101657.13;;;33.92;nan
59407;BME280;45208;32.616;-115.472;2022-12-07T06:39:24;101658.38;;;33.95;nan
59407;BME280;45208;32.616;-115.472;2022-12-07T06:41:51;101666.38;;;33.82;nan
59407;BME280;45208;32.616;-115.472;2022-12-07T06:44:18;101663.97;;;33.81;nan
59407;BME280;45208;32.616;-115.472;2022-12-07T06:46:44;101667.16;;;33.65;nan
59407;BME280;45208;32.616;-115.472;2022-12-07T06:49:11;101663.09;;;33.55;nan
59407;BME280;45208;32.616;-115.472;2022-12-07T06:51:37;101668.34;;;33.57;nan
59407;BME280;45208;32.616;-115.472;2022-12-07T06:54:07;101666.75;;;33.70;nan
59407;BME280;45208;32.616;-115.472;2022-12-07T06:56:34;101663.13;;;33.59;nan
59407;BME280;45208;32.616;-115.472;2022-12-07T06:59:00;101662.69;;;33.46;nan
59407;BME280;45208;32.616;-115.472;2022-12-07T07:01:26;101658.69;;;33.51;nan
59407;BME280;45208;32.616;-115.472;2022-12-07T07:03:53;101660.31;;;33.59;nan
59407;BME280;45208;32.616;-115.472;2022-12-07T07:06:20;101658.28;;;33.56;nan
59407;BME280;45208;32.616;-115.472;2022-12-07T07:08:47;101656.66;;;33.55;nan
59407;BME280;45208;32.616;-115.472;2022-12-07T07:11:13;101655.06;;;33.50;nan
59407;BME280;45208;32.616;-115.472;2022-12-07T07:13:39;101651.81;;;33.41;nan
59407;BME280;45208;32.616;-115.472;2022-12-07T07:16:06;101655.06;;;33.50;nan
59407;BME280;45208;32.616;-115.472;2022-12-07T07:18:32;101660.69;;;33.47;nan
59407;BME280;45208;32.616;-115.472;2022-12-07T07:20:59;101657.47;;;33.45;nan
59407;BME280;45208;32.616;-115.472;2022-12-07T07:23:25;101652.63;;;33.49;nan
59407;BME280;45208;32.616;-115.472;2022-12-07T07:25:51;101642.94;;;33.35;nan
59407;BME280;45208;32.616;-115.472;2022-12-07T07:28:18;101653.41;;;33.35;nan
59407;BME280;45208;32.616;-115.472;2022-12-07T07:30:44;101651.31;;;33.21;nan
59407;BME280;45208;32.616;-115.472;2022-12-07T07:33:11;101647.72;;;33.31;nan
59407;BME280;45208;32.616;-115.472;2022-12-07T07:35:37;101649.81;;;33.49;nan
59407;BME280;45208;32.616;-115.472;2022-12-07T07:38:04;101647.72;;;33.28;nan
59407;BME280;45208;32.616;-115.472;2022-12-07T07:40:31;101648.88;;;31.51;nan
59407;BME280;45208;32.616;-115.472;2022-12-07T07:42:57;101657.94;;;32.70;nan
59407;BME280;45208;32.616;-115.472;2022-12-07T07:45:24;101648.78;;;32.88;nan
59407;BME280;45208;32.616;-115.472;2022-12-07T07:47:51;101649.63;;;33.02;nan
59407;BME280;45208;32.616;-115.472;2022-12-07T07:50:18;101652.09;;;33.11;nan
59407;BME280;45208;32.616;-115.472;2022-12-07T07:52:44;101657.72;;;33.11;nan
59407;BME280;45208;32.616;-115.472;2022-12-07T07:55:11;101653.31;;;33.21;nan
59407;BME280;45208;32.616;-115.472;2022-12-07T07:57:38;101659.75;;;33.21;nan
59407;BME280;45208;32.616;-115.472;2022-12-07T08:00:05;101663.78;;;33.20;nan
59407;BME280;45208;32.616;-115.472;2022-12-07T08:02:37;101661.31;;;33.01;nan
59407;BME280;45208;32.616;-115.472;2022-12-07T08:05:04;101655.63;;;32.87;nan
59407;BME280;45208;32.616;-115.472;2022-12-07T08:07:30;101666.09;;;32.90;nan
59407;BME280;45208;32.616;-115.472;2022-12-07T08:09:56;101651.97;;;32.83;nan
59407;BME280;45208;32.616;-115.472;2022-12-07T08:12:23;101656.44;;;32.87;nan
59407;BME280;45208;32.616;-115.472;2022-12-07T08:14:49;101658.69;;;32.64;nan
59407;BME280;45208;32.616;-115.472;2022-12-07T08:17:15;101656.44;;;32.91;nan
59407;BME280;45208;32.616;-115.472;2022-12-07T08:19:42;101658.06;;;32.99;nan
59407;BME280;45208;32.616;-115.472;2022-12-07T08:22:08;101655.63;;;32.90;nan
59407;BME280;45208;32.616;-115.472;2022-12-07T08:24:34;101659.66;;;32.93;nan
59407;BME280;45208;32.616;-115.472;2022-12-07T08:27:01;101661.53;;;32.71;nan
59407;BME280;45208;32.616;-115.472;2022-12-07T08:29:27;101659.13;;;32.69;nan
59407;BME280;45208;32.616;-115.472;2022-12-07T08:31:54;101665.19;;;32.75;nan
59407;BME280;45208;32.616;-115.472;2022-12-07T08:34:20;101664.31;;;32.67;nan
59407;BME280;45208;32.616;-115.472;2022-12-07T08:36:46;101667.88;;;32.50;nan
59407;BME280;45208;32.616;-115.472;2022-12-07T08:39:13;101681.19;;;32.60;nan
59407;BME280;45208;32.616;-115.472;2022-12-07T08:41:39;101677.16;;;32.58;nan
59407;BME280;45208;32.616;-115.472;2022-12-07T08:44:05;101677.13;;;32.54;nan
59407;BME280;45208;32.616;-115.472;2022-12-07T08:46:36;101668.28;;;32.52;nan
59407;BME280;45208;32.616;-115.472;2022-12-07T08:49:11;101670.19;;;31.56;nan
59407;BME280;45208;32.616;-115.472;2022-12-07T08:51:39;101675.41;;;31.54;nan
59407;BME280;45208;32.616;-115.472;2022-12-07T08:54:06;101679.19;;;32.13;nan
59407;BME280;45208;32.616;-115.472;2022-12-07T08:56:33;101678.59;;;32.34;nan
59407;BME280;45208;32.616;-115.472;2022-12-07T08:59:00;101668.63;;;32.47;nan
59407;BME280;45208;32.616;-115.472;2022-12-07T09:01:28;101668.31;;;32.59;nan
59407;BME280;45208;32.616;-115.472;2022-12-07T09:03:54;101661.47;;;32.60;nan
59407;BME280;45208;32.616;-115.472;2022-12-07T09:06:20;101668.22;;;32.49;nan
59407;BME280;45208;32.616;-115.472;2022-12-07T09:08:47;101670.28;;;32.52;nan
59407;BME280;45208;32.616;-115.472;2022-12-07T09:11:15;101673.53;;;32.09;nan
59407;BME280;45208;32.616;-115.472;2022-12-07T09:13:42;101661.09;;;32.10;nan
59407;BME280;45208;32.616;-115.472;2022-12-07T09:16:08;101665.78;;;32.40;nan
59407;BME280;45208;32.616;-115.472;2022-12-07T09:18:34;101665.47;;;32.52;nan
59407;BME280;45208;32.616;-115.472;2022-12-07T09:21:01;101667.47;;;32.55;nan
59407;BME280;45208;32.616;-115.472;2022-12-07T09:23:27;101670.72;;;32.57;nan
59407;BME280;45208;32.616;-115.472;2022-12-07T09:25:53;101669.81;;;32.46;nan
59407;BME280;45208;32.616;-115.472;2022-12-07T09:28:19;101666.97;;;32.39;nan
59407;BME280;45208;32.616;-115.472;2022-12-07T09:30:46;101667.91;;;32.57;nan
59407;BME280;45208;32.616;-115.472;2022-12-07T09:33:13;101662.28;;;32.61;nan
59407;BME280;45208;32.616;-115.472;2022-12-07T09:35:49;101668.44;;;32.81;nan
59407;BME280;45208;32.616;-115.472;2022-12-07T09:38:16;101668.53;;;32.95;nan
59407;BME280;45208;32.616;-115.472;2022-12-07T09:40:43;101670.47;;;32.80;nan
59407;BME280;45208;32.616;-115.472;2022-12-07T09:43:13;101667.72;;;32.91;nan
59407;BME280;45208;32.616;-115.472;2022-12-07T09:45:40;101656.06;;;32.96;nan
59407;BME280;45208;32.616;-115.472;2022-12-07T09:48:14;101668.66;;;33.23;nan
59407;BME280;45208;32.616;-115.472;2022-12-07T09:50:43;101681.59;;;32.11;nan
59407;BME280;45208;32.616;-115.472;2022-12-07T09:53:19;101672.19;;;32.37;nan
59407;BME280;45208;32.616;-115.472;2022-12-07T09:55:47;101679.78;;;32.91;nan
59407;BME280;45208;32.616;-115.472;2022-12-07T09:58:17;101676.91;;;32.84;nan
59407;BME280;45208;32.616;-115.472;2022-12-07T10:00:45;101675.69;;;32.82;nan
59407;BME280;45208;32.616;-115.472;2022-12-07T10:03:11;101680.25;;;33.11;nan
59407;BME280;45208;32.616;-115.472;2022-12-07T10:05:44;101679.47;;;33.11;nan
59407;BME280;45208;32.616;-115.472;2022-12-07T10:08:12;101670.25;;;33.24;nan
59407;BME280;45208;32.616;-115.472;2022-12-07T10:10:38;101674.28;;;33.30;nan
59407;BME280;45208;32.616;-115.472;2022-12-07T10:13:06;101671.97;;;33.47;nan
59407;BME280;45208;32.616;-115.472;2022-12-07T10:21:00;101681.53;;;33.31;nan
59407;BME280;45208;32.616;-115.472;2022-12-07T10:23:27;101677.56;;;33.32;nan
59407;BME280;45208;32.616;-115.472;2022-12-07T10:25:53;101675.94;;;33.35;nan
59407;BME280;45208;32.616;-115.472;2022-12-07T10:28:21;101680.78;;;33.34;nan
59407;BME280;45208;32.616;-115.472;2022-12-07T10:30:55;101687.13;;;33.21;nan
59407;BME280;45208;32.616;-115.472;2022-12-07T10:35:55;101676.72;;;33.32;nan
59407;BME280;45208;32.616;-115.472;2022-12-07T10:38:26;101676.00;;;33.53;nan
59407;BME280;45208;32.616;-115.472;2022-12-07T10:41:05;101676.72;;;33.32;nan
59407;BME280;45208;32.616;-115.472;2022-12-07T10:43:32;101663.88;;;33.38;nan
59407;BME280;45208;32.616;-115.472;2022-12-07T10:46:17;101670.34;;;33.53;nan
59407;BME280;45208;32.616;-115.472;2022-12-07T10:49:03;101680.81;;;33.42;nan
59407;BME280;45208;32.616;-115.472;2022-12-07T10:54:34;101682.78;;;33.34;nan
59407;BME280;45208;32.616;-115.472;2022-12-07T11:12:44;101695.31;;;33.54;nan
59407;BME280;45208;32.616;-115.472;2022-12-07T11:22:50;101719.19;;;33.92;nan
59407;BME280;45208;32.616;-115.472;2022-12-07T11:27:48;101718.31;;;33.63;nan
59407;BME280;45208;32.616;-115.472;2022-12-07T11:30:19;101706.69;;;33.86;nan
59407;BME280;45208;32.616;-115.472;2022-12-07T11:35:36;101718.00;;;34.25;nan
59407;BME280;45208;32.616;-115.472;2022-12-07T11:38:16;101725.66;;;34.29;nan
59407;BME280;45208;32.616;-115.472;2022-12-07T11:40:44;101725.28;;;34.37;nan
59407;BME280;45208;32.616;-115.472;2022-12-07T11:45:44;101720.03;;;34.39;nan
59407;BME280;45208;32.616;-115.472;2022-12-07T11:50:42;101731.31;;;34.39;nan
59407;BME280;45208;32.616;-115.472;2022-12-07T11:58:20;101735.78;;;34.51;nan
59407;BME280;45208;32.616;-115.472;2022-12-07T12:00:49;101734.09;;;33.86;nan
59407;BME280;45208;32.616;-115.472;2022-12-07T12:03:29;101730.91;;;34.23;nan
59407;BME280;45208;32.616;-115.472;2022-12-07T12:05:57;101728.50;;;34.32;nan
59407;BME280;45208;32.616;-115.472;2022-12-07T12:08:34;101726.88;;;34.24;nan
59407;BME280;45208;32.616;-115.472;2022-12-07T12:11:08;101730.50;;;34.21;nan
59407;BME280;45208;32.616;-115.472;2022-12-07T12:21:19;101747.41;;;34.03;nan
59407;BME280;45208;32.616;-115.472;2022-12-07T12:23:50;101752.34;;;33.19;nan
59407;BME280;45208;32.616;-115.472;2022-12-07T12:26:21;101751.53;;;32.57;nan
59407;BME280;45208;32.616;-115.472;2022-12-07T12:31:15;101763.44;;;31.32;nan
59407;BME280;45208;32.616;-115.472;2022-12-07T12:33:44;101768.44;;;32.16;nan
59407;BME280;45208;32.616;-115.472;2022-12-07T12:44:01;101774.81;;;32.50;nan
59407;BME280;45208;32.616;-115.472;2022-12-07T12:48:54;101778.47;;;34.28;nan
59407;BME280;45208;32.616;-115.472;2022-12-07T12:51:40;101791.75;;;34.03;nan
59407;BME280;45208;32.616;-115.472;2022-12-07T12:54:25;101799.03;;;34.18;nan
59407;BME280;45208;32.616;-115.472;2022-12-07T13:02:15;101818.84;;;34.68;nan
59407;BME280;45208;32.616;-115.472;2022-12-07T13:10:02;101827.25;;;34.29;nan
59407;BME280;45208;32.616;-115.472;2022-12-07T13:12:28;101826.88;;;34.34;nan
59407;BME280;45208;32.616;-115.472;2022-12-07T13:20:00;101826.91;;;34.69;nan
59407;BME280;45208;32.616;-115.472;2022-12-07T13:25:03;101821.50;;;33.82;nan
59407;BME280;45208;32.616;-115.472;2022-12-07T13:27:31;101825.16;;;33.90;nan
59407;BME280;45208;32.616;-115.472;2022-12-07T13:29:58;101844.53;;;33.99;nan
59407;BME280;45208;32.616;-115.472;2022-12-07T13:32:27;101838.50;;;33.97;nan
59407;BME280;45208;32.616;-115.472;2022-12-07T13:34:54;101854.00;;;33.55;nan
59407;BME280;45208;32.616;-115.472;2022-12-07T13:37:23;101854.41;;;33.57;nan
59407;BME280;45208;32.616;-115.472;2022-12-07T13:39:55;101865.41;;;33.14;nan
59407;BME280;45208;32.616;-115.472;2022-12-07T13:44:52;101866.78;;;33.34;nan
59407;BME280;45208;32.616;-115.472;2022-12-07T13:47:20;101872.00;;;32.85;nan
59407;BME280;45208;32.616;-115.472;2022-12-07T13:49:49;101872.34;;;33.31;nan
59407;BME280;45208;32.616;-115.472;2022-12-07T13:54:55;101880.00;;;33.27;nan
59407;BME280;45208;32.616;-115.472;2022-12-07T13:57:22;101869.44;;;33.13;nan
59407;BME280;45208;32.616;-115.472;2022-12-07T13:59:50;101869.81;;;33.08;nan
59407;BME280;45208;32.616;-115.472;2022-12-07T14:02:21;101881.25;;;32.82;nan
59407;BME280;45208;32.616;-115.472;2022-12-07T14:04:50;101877.25;;;32.42;nan
59407;BME280;45208;32.616;-115.472;2022-12-07T14:07:21;101880.00;;;32.35;nan
59407;BME280;45208;32.616;-115.472;2022-12-07T14:09:55;101888.69;;;32.63;nan
59407;BME280;45208;32.616;-115.472;2022-12-07T14:12:22;101898.97;;;32.45;nan
59407;BME280;45208;32.616;-115.472;2022-12-07T14:14:48;101910.84;;;32.28;nan
59407;BME280;45208;32.616;-115.472;2022-12-07T14:17:16;101908.38;;;31.63;nan
59407;BME280;45208;32.616;-115.472;2022-12-07T14:24:51;101916.78;;;30.87;nan
59407;BME280;45208;32.616;-115.472;2022-12-07T14:27:19;101916.13;;;30.32;nan
59407;BME280;45208;32.616;-115.472;2022-12-07T14:29:46;101914.44;;;31.38;nan
59407;BME280;45208;32.616;-115.472;2022-12-07T14:32:28;101918.94;;;31.43;nan
59407;BME280;45208;32.616;-115.472;2022-12-07T14:35:14;101920.78;;;31.88;nan
59407;BME280;45208;32.616;-115.472;2022-12-07T14:37:42;101917.16;;;32.17;nan
59407;BME280;45208;32.616;-115.472;2022-12-07T14:40:12;101915.84;;;32.11;nan
59407;BME280;45208;32.616;-115.472;2022-12-07T14:42:38;101920.41;;;32.23;nan
59407;BME280;45208;32.616;-115.472;2022-12-07T14:45:05;101924.47;;;32.26;nan
59407;BME280;45208;32.616;-115.472;2022-12-07T14:47:32;101939.13;;;32.38;nan
59407;BME280;45208;32.616;-115.472;2022-12-07T14:49:58;101942.78;;;32.12;nan
59407;BME280;45208;32.616;-115.472;2022-12-07T14:52:27;101953.56;;;32.07;nan
59407;BME280;45208;32.616;-115.472;2022-12-07T14:54:54;101963.13;;;31.99;nan
59407;BME280;45208;32.616;-115.472;2022-12-07T14:57:21;101971.19;;;31.74;nan